CheckWX is a tool to help pilots better visualize weather data.  It is not intended as a substitute for an official pre-flight weather briefing.

17:29:32 UTC

CYRQ METAR
Trois-Rivieres Airport
Trois-Rivieres, Canada
Current

30 mins ago

CYRQ 241700Z AUTO 32005KT 270V040 9SM BKN043 OVC065 03/M06 A2992 RMK SLP136
Observed
Mar-24 @ 17:00 UTC
Wind
  • 320° at 5 KTS
Visibility
9 SM
Flight Rules
VFR
Cloud Levels
  • Broken at 4,300' AGL
  • Overcast at 6,500' AGL
Temperature
C / 37°F
Dewpoint
-6°C / 21°F
Humidity
52%
Altimeter
29.92" Hg
Pressure
1013.6 hPa
Previous

1 hour ago

CYRQ 241600Z AUTO 19007KT 9SM SCT095 SCT110 01/M04 A2992 RMK SLP137
Observed
Mar-24 @ 16:00 UTC
Wind
  • 190° at 7 KTS
Visibility
9 SM
Flight Rules
VFR
Cloud Levels
  • Scattered at 9,500' AGL
  • Scattered at 11,000' AGL
Temperature
C / 34°F
Dewpoint
-4°C / 25°F
Humidity
70%
Altimeter
29.92" Hg
Pressure
1013.7 hPa
Previous

2 hours ago

CYRQ 241500Z AUTO 23011KT 9SM OVC120 01/M06 A2993 RMK PRESRR SLP139
Observed
Mar-24 @ 15:00 UTC
Wind
  • 230° at 11 KTS
Visibility
9 SM
Flight Rules
VFR
Cloud Levels
  • Overcast at 12,000' AGL
Temperature
C / 34°F
Dewpoint
-6°C / 21°F
Humidity
60%
Altimeter
29.93" Hg
Pressure
1013.9 hPa